PHKO METAR and TAF | Updated Today

PHKO METAR

Ellison Onizuka Kona International At Keahole Airport

Observation time: 4 min. ago

PHKO 251953Z 32008KT 10SM FEW041 27/17 A3000 RMK AO2 SLP158 T02720172

Need help? Read our tutorial on how to read METARs or read the parsed version below.

Ellison Onizuka Kona International At Keahole Airport (PHKO) METAR

  • Weather conditions on Wed, 25 May 2022 19:53:00 +0000 (4 min. ago):
  • Present conditions: Dry
  • Clouds: A few at 1250 meters
  • Visibility: 16093 meters
  • Wind: 320 degrees at 8 knots
  • Temperature: 27 celsius
  • Dew point: 17 celsius
  • Pressure: 30 inHg
  • Remarks: AO2 SLP158 T02720172


Useful to know...

PHKO TAF

Ellison Onizuka Kona International At Keahole Airport

PHKO 251721Z 2518/2618 VRB05KT P6SM FEW050 FM251900 23010KT P6SM FEW030 SCT050 FM260700 05005KT P6SM FEW035 SCT050
Observation time: 2:36 hr. ago
Need help? Read our tutorial on how to read TAFs or read the parsed version below.

Parsed version of TAF for Ellison Onizuka Kona International At Keahole Airport (PHKO)

  • From 25 May at 18:00 UTC, to day 26 of the month at 18:00 UTC
  • Clouds: A few at 1524 meters
  • Wind: Variable at 5
  • From day 25 of the month at 19:00 UTC
  • Clouds: A few at 914 meters; scattered at 1524 meters
  • Wind: 230 degrees at 10
  • From day 26 of the month at 07:00 UTC
  • Clouds: A few at 1067 meters; scattered at 1524 meters
  • Wind: 50 degrees at 5